createdAt,value
2023-02-13T00:00:13.143Z,10.90
2023-02-13T00:01:13.056Z,10.90
2023-02-13T00:02:13.343Z,10.90
2023-02-13T00:03:13.652Z,10.90
2023-02-13T00:04:13.912Z,10.80
2023-02-13T00:05:13.164Z,10.70
2023-02-13T00:06:13.183Z,10.60
2023-02-13T00:07:13.593Z,10.70
2023-02-13T00:08:16.294Z,10.70
2023-02-13T00:09:13.679Z,10.70
2023-02-13T00:10:13.637Z,10.60
2023-02-13T00:11:13.851Z,10.50
2023-02-13T00:12:14.208Z,10.60
2023-02-13T00:13:13.113Z,10.70
2023-02-13T00:14:13.127Z,10.80
2023-02-13T00:15:13.170Z,10.70
2023-02-13T00:16:13.356Z,10.80
2023-02-13T00:17:13.465Z,10.80
2023-02-13T00:18:13.552Z,10.80
2023-02-13T00:19:13.618Z,10.90
2023-02-13T00:20:13.877Z,10.80
2023-02-13T00:21:13.989Z,10.90
2023-02-13T00:22:13.037Z,10.90
2023-02-13T00:23:12.962Z,10.70
2023-02-13T00:24:13.094Z,10.70
2023-02-13T00:25:13.461Z,10.80
2023-02-13T00:26:13.845Z,10.90
2023-02-13T00:27:14.098Z,11.00
2023-02-13T00:28:13.332Z,10.80
2023-02-13T00:29:13.404Z,10.70
2023-02-13T00:30:13.322Z,10.80
2023-02-13T00:31:13.738Z,10.70
2023-02-13T00:32:14.258Z,10.80
2023-02-13T00:33:13.344Z,10.80
2023-02-13T00:34:13.314Z,10.80
2023-02-13T00:35:13.261Z,10.90
2023-02-13T00:36:13.560Z,10.90
2023-02-13T00:37:13.513Z,10.90
2023-02-13T00:38:13.562Z,10.90
2023-02-13T00:39:13.651Z,11.00
2023-02-13T00:40:13.534Z,10.90
2023-02-13T00:41:13.477Z,10.90
2023-02-13T00:42:13.402Z,11.00
2023-02-13T00:43:13.358Z,10.90
2023-02-13T00:44:18.601Z,10.80
2023-02-13T00:45:14.942Z,10.80
2023-02-13T00:46:13.100Z,11.00
2023-02-13T00:47:13.185Z,10.80
2023-02-13T00:48:13.500Z,10.80
2023-02-13T00:49:13.420Z,10.90
2023-02-13T00:50:13.459Z,10.90
2023-02-13T00:51:13.999Z,10.90
2023-02-13T00:52:14.534Z,10.80
2023-02-13T00:53:13.700Z,10.80
2023-02-13T00:54:14.099Z,10.80
2023-02-13T00:55:13.184Z,10.70
2023-02-13T00:56:13.433Z,10.70
2023-02-13T00:57:13.517Z,10.70
2023-02-13T00:58:13.460Z,10.80
2023-02-13T00:59:13.572Z,10.90
2023-02-13T01:00:13.704Z,10.90
2023-02-13T01:01:13.879Z,10.90
2023-02-13T01:02:12.797Z,10.80
2023-02-13T01:03:13.898Z,10.80
2023-02-13T01:04:13.258Z,10.80
2023-02-13T01:05:13.163Z,10.50
2023-02-13T01:06:13.140Z,10.20
2023-02-13T01:07:15.765Z,10.30
2023-02-13T01:08:13.681Z,10.60
2023-02-13T01:09:13.607Z,10.40
2023-02-13T01:10:13.568Z,10.30
2023-02-13T01:11:13.746Z,10.40
2023-02-13T01:12:14.248Z,10.20
2023-02-13T01:13:13.512Z,10.30
2023-02-13T01:14:13.537Z,10.70
2023-02-13T01:15:13.375Z,10.90
2023-02-13T01:16:13.420Z,10.60
2023-02-13T01:17:13.524Z,10.60
2023-02-13T01:18:13.489Z,10.30
2023-02-13T01:19:13.417Z,10.40
2023-02-13T01:20:13.425Z,10.60
2023-02-13T01:21:13.820Z,10.70
2023-02-13T01:22:14.133Z,10.40
2023-02-13T01:23:13.332Z,10.50
2023-02-13T01:24:13.374Z,10.70
2023-02-13T01:25:13.297Z,10.80
2023-02-13T01:26:13.446Z,11.00
2023-02-13T01:27:13.554Z,10.90
2023-02-13T01:28:13.682Z,10.80
2023-02-13T01:29:13.845Z,10.90
2023-02-13T01:30:13.772Z,10.90
2023-02-13T01:31:13.770Z,10.90
2023-02-13T01:32:14.053Z,11.00
2023-02-13T01:33:13.429Z,10.80
2023-02-13T01:34:13.379Z,10.90
2023-02-13T01:35:13.298Z,10.80
2023-02-13T01:36:13.145Z,10.70
2023-02-13T01:37:13.496Z,10.80
2023-02-13T01:38:13.440Z,10.80
2023-02-13T01:39:13.371Z,10.70
2023-02-13T01:40:13.279Z,10.60
2023-02-13T01:41:13.221Z,10.60
2023-02-13T01:42:13.129Z,10.60
2023-02-13T01:43:13.257Z,10.70
2023-02-13T01:44:13.093Z,10.70
2023-02-13T01:45:13.239Z,10.70
2023-02-13T01:46:13.126Z,10.70
2023-02-13T01:47:13.142Z,10.70
2023-02-13T01:48:13.135Z,10.70
2023-02-13T01:49:13.343Z,10.70
2023-02-13T01:50:13.489Z,10.70
2023-02-13T01:51:13.450Z,10.70
2023-02-13T01:52:14.871Z,10.60
2023-02-13T01:53:14.095Z,10.30
2023-02-13T01:54:13.073Z,10.50
2023-02-13T01:55:12.919Z,10.70
2023-02-13T01:56:12.892Z,10.60
2023-02-13T01:57:12.814Z,10.60
2023-02-13T01:58:14.051Z,10.80
2023-02-13T01:59:13.371Z,10.50
2023-02-13T02:00:13.634Z,10.40
2023-02-13T02:01:13.800Z,10.10
2023-02-13T02:02:13.909Z,10.20
2023-02-13T02:03:13.450Z,10.20
2023-02-13T02:04:13.448Z,10.40
2023-02-13T02:05:13.498Z,10.20
2023-02-13T02:06:13.853Z,10.20
2023-02-13T02:07:14.057Z,10.40
2023-02-13T02:08:13.011Z,10.40
2023-02-13T02:09:12.947Z,10.40
2023-02-13T02:10:12.898Z,10.50
2023-02-13T02:11:12.879Z,10.60
2023-02-13T02:12:13.740Z,10.60
2023-02-13T02:13:13.778Z,10.50
2023-02-13T02:14:13.789Z,10.40
2023-02-13T02:15:13.751Z,10.50
2023-02-13T02:16:13.834Z,10.50
2023-02-13T02:17:13.013Z,10.50
2023-02-13T02:18:12.940Z,10.40
2023-02-13T02:19:13.071Z,10.40
2023-02-13T02:20:13.283Z,10.30
2023-02-13T02:21:13.194Z,10.40
2023-02-13T02:22:13.342Z,10.30
2023-02-13T02:23:13.200Z,10.20
2023-02-13T02:24:13.111Z,10.10
2023-02-13T02:25:13.147Z,9.70
2023-02-13T02:26:13.500Z,9.70
2023-02-13T02:27:13.565Z,10.00
2023-02-13T02:28:13.663Z,9.40
2023-02-13T02:29:13.620Z,10.00
2023-02-13T02:30:13.752Z,10.00
2023-02-13T02:31:14.279Z,10.10
2023-02-13T02:32:13.636Z,10.00
2023-02-13T02:33:13.531Z,10.30
2023-02-13T02:34:13.558Z,10.40
2023-02-13T02:35:14.033Z,10.20
2023-02-13T02:36:13.141Z,10.10
2023-02-13T02:37:13.060Z,9.40
2023-02-13T02:38:12.950Z,9.60
2023-02-13T02:39:13.106Z,9.60
2023-02-13T02:40:13.048Z,9.60
2023-02-13T02:41:13.077Z,9.40
2023-02-13T02:42:13.260Z,9.60
2023-02-13T02:43:13.548Z,9.80
2023-02-13T02:44:13.643Z,9.40
2023-02-13T02:45:13.717Z,9.80
2023-02-13T02:46:13.689Z,10.10
2023-02-13T02:47:13.859Z,10.00
2023-02-13T02:48:13.819Z,9.80
2023-02-13T02:49:13.707Z,10.00
2023-02-13T02:50:13.692Z,9.80
2023-02-13T02:51:13.676Z,9.90
2023-02-13T02:52:13.595Z,10.20
2023-02-13T02:53:13.550Z,10.30
2023-02-13T02:54:13.905Z,10.40
2023-02-13T02:55:12.863Z,10.40
2023-02-13T02:56:13.794Z,10.40
2023-02-13T02:57:14.801Z,9.90
2023-02-13T02:58:14.141Z,10.00
2023-02-13T02:59:13.291Z,10.30
2023-02-13T03:00:13.263Z,10.30
2023-02-13T03:01:13.576Z,10.00
2023-02-13T03:02:13.808Z,9.70
2023-02-13T03:03:13.845Z,9.70
2023-02-13T03:04:14.344Z,9.00
2023-02-13T03:05:13.529Z,9.20
2023-02-13T03:06:13.529Z,9.40
2023-02-13T03:07:13.670Z,9.50
2023-02-13T03:08:13.584Z,9.20
2023-02-13T03:09:13.660Z,9.40
2023-02-13T03:10:13.570Z,9.50
2023-02-13T03:11:13.596Z,9.60
2023-02-13T03:12:13.516Z,9.70
2023-02-13T03:13:13.564Z,9.40
2023-02-13T03:14:13.487Z,9.30
2023-02-13T03:15:13.465Z,9.40
2023-02-13T03:16:13.430Z,9.50
2023-02-13T03:17:13.432Z,9.20
2023-02-13T03:18:13.357Z,9.20
2023-02-13T03:19:13.760Z,9.40
2023-02-13T03:20:13.745Z,9.50
2023-02-13T03:21:13.954Z,9.40
2023-02-13T03:22:12.903Z,9.00
2023-02-13T03:23:12.938Z,9.20
2023-02-13T03:24:13.188Z,9.00
2023-02-13T03:25:13.054Z,8.80
2023-02-13T03:26:13.202Z,8.80
2023-02-13T03:27:13.121Z,8.90
2023-02-13T03:28:13.530Z,9.30
2023-02-13T03:29:13.410Z,9.20
2023-02-13T03:30:13.295Z,9.20
2023-02-13T03:31:13.343Z,9.30
2023-02-13T03:32:13.420Z,9.00
2023-02-13T03:33:13.300Z,8.60
2023-02-13T03:34:13.644Z,8.80
2023-02-13T03:35:13.563Z,8.60
2023-02-13T03:36:13.569Z,8.90
2023-02-13T03:37:14.036Z,8.90
2023-02-13T03:38:13.117Z,9.10
2023-02-13T03:39:13.005Z,9.20
2023-02-13T03:40:13.089Z,9.40
2023-02-13T03:41:13.069Z,9.30
2023-02-13T03:42:13.182Z,9.20
2023-02-13T03:43:13.085Z,9.40
2023-02-13T03:44:13.276Z,9.20
2023-02-13T03:45:13.233Z,9.10
2023-02-13T03:46:13.758Z,9.00
2023-02-13T03:47:14.077Z,9.30
2023-02-13T03:48:13.066Z,9.20
2023-02-13T03:49:13.281Z,9.50
2023-02-13T03:50:13.516Z,9.30
2023-02-13T03:51:13.834Z,9.40
2023-02-13T03:52:14.208Z,9.70
2023-02-13T03:53:13.203Z,9.20
2023-02-13T03:54:13.158Z,9.20
2023-02-13T03:55:13.594Z,9.20
2023-02-13T03:56:13.659Z,9.20
2023-02-13T03:57:13.541Z,9.50
2023-02-13T03:58:13.475Z,9.60
2023-02-13T03:59:13.540Z,9.40
2023-02-13T04:00:13.479Z,9.50
2023-02-13T04:01:13.482Z,9.70
2023-02-13T04:02:13.492Z,9.80
2023-02-13T04:03:13.651Z,9.40
2023-02-13T04:04:13.689Z,9.50
2023-02-13T04:05:14.713Z,8.90
2023-02-13T04:06:13.765Z,8.60
2023-02-13T04:07:13.965Z,8.60
2023-02-13T04:08:13.242Z,8.80
2023-02-13T04:09:13.451Z,8.90
2023-02-13T04:10:13.334Z,9.20
2023-02-13T04:11:14.657Z,9.20
2023-02-13T04:12:13.853Z,9.20
2023-02-13T04:13:13.908Z,9.60
2023-02-13T04:14:13.004Z,9.60
2023-02-13T04:15:13.057Z,9.00
2023-02-13T04:16:13.211Z,8.70
2023-02-13T04:17:13.225Z,9.00
2023-02-13T04:18:13.343Z,8.80
2023-02-13T04:19:13.334Z,9.30
2023-02-13T04:20:13.381Z,9.40
2023-02-13T04:21:13.368Z,9.20
2023-02-13T04:22:13.237Z,9.20
2023-02-13T04:23:13.235Z,9.20
2023-02-13T04:24:13.112Z,9.00
2023-02-13T04:25:13.077Z,8.90
2023-02-13T04:26:12.964Z,8.80
2023-02-13T04:27:12.923Z,8.70
2023-02-13T04:28:12.827Z,8.90
2023-02-13T04:29:18.859Z,9.10
2023-02-13T04:30:13.751Z,8.80
2023-02-13T04:31:15.510Z,9.20
2023-02-13T04:32:13.774Z,9.10
2023-02-13T04:33:13.863Z,8.70
2023-02-13T04:34:14.046Z,8.90
2023-02-13T04:35:12.996Z,8.80
2023-02-13T04:36:13.396Z,8.80
2023-02-13T04:37:13.753Z,8.70
2023-02-13T04:38:14.079Z,8.70
2023-02-13T04:39:13.354Z,8.90
2023-02-13T04:40:13.663Z,9.30
2023-02-13T04:41:13.765Z,9.20
2023-02-13T04:42:14.062Z,9.20
2023-02-13T04:43:13.182Z,9.40
2023-02-13T04:44:13.669Z,9.50
2023-02-13T04:45:13.638Z,9.50
2023-02-13T04:46:13.964Z,9.20
2023-02-13T04:47:13.347Z,9.10
2023-02-13T04:48:13.293Z,9.40
2023-02-13T04:49:13.567Z,9.40
2023-02-13T04:50:13.842Z,9.50
2023-02-13T04:51:14.294Z,9.50
2023-02-13T04:52:13.559Z,9.50
2023-02-13T04:53:14.110Z,9.30
2023-02-13T04:54:13.385Z,9.10
2023-02-13T04:55:13.356Z,9.10
2023-02-13T04:56:13.506Z,9.10
2023-02-13T04:57:13.535Z,8.90
2023-02-13T04:58:13.573Z,8.90
2023-02-13T04:59:13.662Z,9.10
2023-02-13T05:00:13.808Z,9.20
2023-02-13T05:01:14.274Z,9.60
2023-02-13T05:02:13.802Z,9.60
2023-02-13T05:03:14.113Z,9.60
2023-02-13T05:04:13.254Z,9.60
2023-02-13T05:05:13.253Z,9.60
2023-02-13T05:06:13.462Z,9.70
2023-02-13T05:07:13.678Z,9.80
2023-02-13T05:08:13.770Z,9.50
2023-02-13T05:09:14.322Z,8.70
2023-02-13T05:10:14.509Z,8.80
2023-02-13T05:11:13.522Z,9.00
2023-02-13T05:12:14.099Z,9.10
2023-02-13T05:13:13.364Z,9.30
2023-02-13T05:14:13.540Z,9.40
2023-02-13T05:15:13.585Z,8.80
2023-02-13T05:16:13.855Z,8.90
2023-02-13T05:17:13.785Z,8.70
2023-02-13T05:18:14.173Z,8.90
2023-02-13T05:19:13.403Z,8.90
2023-02-13T05:20:13.340Z,9.20
2023-02-13T05:21:13.296Z,9.60
2023-02-13T05:22:13.340Z,9.40
2023-02-13T05:23:13.484Z,9.60
2023-02-13T05:24:14.075Z,9.60
2023-02-13T05:25:13.425Z,9.20
2023-02-13T05:26:13.261Z,9.20
2023-02-13T05:27:13.180Z,9.40
2023-02-13T05:28:13.157Z,9.50
2023-02-13T05:29:13.304Z,9.10
2023-02-13T05:30:13.497Z,8.60
2023-02-13T05:31:13.545Z,8.70
2023-02-13T05:32:13.800Z,8.80
2023-02-13T05:33:13.821Z,9.00
2023-02-13T05:34:14.264Z,9.20
2023-02-13T05:35:13.576Z,9.50
2023-02-13T05:36:13.849Z,9.40
2023-02-13T05:37:13.829Z,9.30
2023-02-13T05:38:14.146Z,9.60
2023-02-13T05:39:13.162Z,9.80
2023-02-13T05:40:13.186Z,9.90
2023-02-13T05:41:13.298Z,9.60
2023-02-13T05:42:14.306Z,9.30
2023-02-13T05:43:13.211Z,9.30
2023-02-13T05:44:13.477Z,9.10
2023-02-13T05:45:13.466Z,9.30
2023-02-13T05:46:13.811Z,9.60
2023-02-13T05:47:13.881Z,9.40
2023-02-13T05:48:13.823Z,9.40
2023-02-13T05:49:14.105Z,9.20
2023-02-13T05:50:13.580Z,9.10
2023-02-13T05:51:13.765Z,9.40
2023-02-13T05:52:13.819Z,9.30
2023-02-13T05:53:14.197Z,9.20
2023-02-13T05:54:13.450Z,9.30
2023-02-13T05:55:13.495Z,9.30
2023-02-13T05:56:13.627Z,9.60
2023-02-13T05:57:14.079Z,9.40
2023-02-13T05:58:12.979Z,9.10
2023-02-13T05:59:13.284Z,9.20
2023-02-13T06:00:13.377Z,9.50
2023-02-13T06:01:13.494Z,9.20
2023-02-13T06:02:13.902Z,9.30
2023-02-13T06:03:12.850Z,9.30
2023-02-13T06:04:57.250Z,9.40
2023-02-13T06:05:13.388Z,9.30
2023-02-13T06:06:13.737Z,9.30
2023-02-13T06:07:13.905Z,9.30
2023-02-13T06:08:13.126Z,9.00
2023-02-13T06:09:13.096Z,9.20
2023-02-13T06:10:13.043Z,9.50
2023-02-13T06:11:13.326Z,9.40
2023-02-13T06:12:14.099Z,9.30
2023-02-13T06:13:13.450Z,9.40
2023-02-13T06:14:13.642Z,9.30
2023-02-13T06:15:13.549Z,9.30
2023-02-13T06:16:13.779Z,9.30
2023-02-13T06:17:14.375Z,9.30
2023-02-13T06:18:13.742Z,9.30
2023-02-13T06:19:13.811Z,9.30
2023-02-13T06:20:13.849Z,9.20
2023-02-13T06:21:14.233Z,9.00
2023-02-13T06:22:13.437Z,9.00
2023-02-13T06:23:13.793Z,8.50
2023-02-13T06:24:13.816Z,8.80
2023-02-13T06:25:13.775Z,9.00
2023-02-13T06:26:14.538Z,9.10
2023-02-13T06:27:14.312Z,9.00
2023-02-13T06:28:13.404Z,9.00
2023-02-13T06:29:13.821Z,8.80
2023-02-13T06:30:15.618Z,8.80
2023-02-13T06:31:13.867Z,8.90
2023-02-13T06:32:12.907Z,8.80
2023-02-13T06:33:13.438Z,8.80
2023-02-13T06:34:13.726Z,8.80
2023-02-13T06:35:14.235Z,8.70
2023-02-13T06:36:14.197Z,8.70
2023-02-13T06:37:18.335Z,8.70
2023-02-13T06:38:14.030Z,8.60
2023-02-13T06:39:13.081Z,8.70
2023-02-13T06:40:13.297Z,8.50
2023-02-13T06:41:13.372Z,8.50
2023-02-13T06:42:13.391Z,8.50
2023-02-13T06:43:13.442Z,8.50
2023-02-13T06:44:13.426Z,8.40
2023-02-13T06:45:13.490Z,8.30
2023-02-13T06:46:13.428Z,8.30
2023-02-13T06:47:13.825Z,8.30
2023-02-13T06:48:13.845Z,8.30
2023-02-13T06:49:13.841Z,8.30
2023-02-13T06:50:13.817Z,8.10
2023-02-13T06:51:14.120Z,8.10
2023-02-13T06:52:14.521Z,8.10
2023-02-13T06:53:13.384Z,8.20
2023-02-13T06:54:13.417Z,8.10
2023-02-13T06:55:13.411Z,8.10
2023-02-13T06:56:13.583Z,8.10
2023-02-13T06:57:13.941Z,8.10
2023-02-13T06:58:12.841Z,8.10
2023-02-13T06:59:13.931Z,8.10
2023-02-13T07:00:13.321Z,8.00
2023-02-13T07:01:13.278Z,8.10
2023-02-13T07:02:13.324Z,8.10
2023-02-13T07:03:13.341Z,8.10
2023-02-13T07:04:18.598Z,8.20
2023-02-13T07:05:13.932Z,8.40
2023-02-13T07:06:13.045Z,8.30
2023-02-13T07:07:13.091Z,8.40
2023-02-13T07:08:13.291Z,8.40
2023-02-13T07:09:18.302Z,8.40
2023-02-13T07:10:13.551Z,8.40
2023-02-13T07:11:13.510Z,8.50
2023-02-13T07:12:13.410Z,8.50
2023-02-13T07:13:13.491Z,8.40
2023-02-13T07:14:13.600Z,8.30
2023-02-13T07:15:13.648Z,8.40
2023-02-13T07:16:13.605Z,8.30
2023-02-13T07:17:13.987Z,8.30
2023-02-13T07:18:12.797Z,8.30
2023-02-13T07:19:13.634Z,8.40
2023-02-13T07:20:13.762Z,8.30
2023-02-13T07:21:13.615Z,8.40
2023-02-13T07:22:13.442Z,8.40
2023-02-13T07:23:13.685Z,8.40
2023-02-13T07:24:13.756Z,8.30
2023-02-13T07:25:13.645Z,8.40
2023-02-13T07:26:13.700Z,8.50
2023-02-13T07:27:13.658Z,8.40
2023-02-13T07:28:14.088Z,8.40
2023-02-13T07:29:13.162Z,8.50
2023-02-13T07:30:13.129Z,8.40
2023-02-13T07:31:13.507Z,8.30
2023-02-13T07:32:13.589Z,8.40
2023-02-13T07:33:13.816Z,8.50
2023-02-13T07:34:14.183Z,8.40
2023-02-13T07:35:13.310Z,8.40
2023-02-13T07:36:13.151Z,8.60
2023-02-13T07:37:13.012Z,8.50
2023-02-13T07:38:12.885Z,8.50
2023-02-13T07:39:13.871Z,8.50
2023-02-13T07:40:13.756Z,8.40
2023-02-13T07:41:13.620Z,8.20
2023-02-13T07:42:13.694Z,8.30
2023-02-13T07:43:14.871Z,8.30
2023-02-13T07:44:14.581Z,8.40
2023-02-13T07:45:13.747Z,8.60
2023-02-13T07:46:13.846Z,8.50
2023-02-13T07:47:14.344Z,8.60
2023-02-13T07:48:13.552Z,8.60
2023-02-13T07:49:13.992Z,8.60
2023-02-13T07:50:12.945Z,8.60
2023-02-13T07:51:14.069Z,8.40
2023-02-13T07:52:13.132Z,8.20
2023-02-13T07:53:13.090Z,8.20
2023-02-13T07:54:13.290Z,8.20
2023-02-13T07:55:13.204Z,8.80
2023-02-13T07:56:13.398Z,8.50
2023-02-13T07:57:19.085Z,8.60
2023-02-13T07:58:13.102Z,8.70
2023-02-13T07:59:13.482Z,8.50
2023-02-13T08:00:13.797Z,8.60
2023-02-13T08:01:14.140Z,8.60
2023-02-13T08:02:13.475Z,8.60
2023-02-13T08:03:13.438Z,8.50
2023-02-13T08:04:13.890Z,8.80
2023-02-13T08:05:12.918Z,9.10
2023-02-13T08:06:12.876Z,9.30
2023-02-13T08:07:13.034Z,9.20
2023-02-13T08:08:13.758Z,9.30
2023-02-13T08:09:14.232Z,9.30
2023-02-13T08:10:13.421Z,9.20
2023-02-13T08:11:13.897Z,9.10
2023-02-13T08:12:12.879Z,9.30
2023-02-13T08:13:14.050Z,9.30
2023-02-13T08:14:13.120Z,9.00
2023-02-13T08:15:13.277Z,9.10
2023-02-13T08:16:13.279Z,8.90
2023-02-13T08:17:13.390Z,9.00
2023-02-13T08:18:13.530Z,9.00
2023-02-13T08:19:13.745Z,9.00
2023-02-13T08:20:13.876Z,9.00
2023-02-13T08:21:13.134Z,8.80
2023-02-13T08:22:13.191Z,9.00
2023-02-13T08:23:13.244Z,9.10
2023-02-13T08:24:13.460Z,9.20
2023-02-13T08:25:13.464Z,9.20
2023-02-13T08:26:13.466Z,9.40
2023-02-13T08:27:13.793Z,9.40
2023-02-13T08:28:13.838Z,9.40
2023-02-13T08:29:13.799Z,9.30
2023-02-13T08:30:13.985Z,9.50
2023-02-13T08:31:12.966Z,9.50
2023-02-13T08:32:13.213Z,9.40
2023-02-13T08:33:13.448Z,9.30
2023-02-13T08:34:13.576Z,9.70
2023-02-13T08:35:13.624Z,9.70
2023-02-13T08:36:13.588Z,9.60
2023-02-13T08:37:13.647Z,9.50
2023-02-13T08:38:13.629Z,9.60
2023-02-13T08:39:13.662Z,9.80
2023-02-13T08:40:13.542Z,9.50
2023-02-13T08:41:13.430Z,9.80
2023-02-13T08:42:15.824Z,9.90
2023-02-13T08:43:13.420Z,10.10
2023-02-13T08:44:13.566Z,10.10
2023-02-13T08:45:13.949Z,10.20
2023-02-13T08:46:13.061Z,10.20
2023-02-13T08:47:13.485Z,10.10
2023-02-13T08:48:13.931Z,9.90
2023-02-13T08:49:12.850Z,9.90
2023-02-13T08:50:14.073Z,9.70
2023-02-13T08:51:13.049Z,10.00
2023-02-13T08:52:13.074Z,9.70
2023-02-13T08:53:13.319Z,9.70
2023-02-13T08:54:13.288Z,9.80
2023-02-13T08:55:13.273Z,9.60
2023-02-13T08:56:13.427Z,9.40
2023-02-13T08:57:13.484Z,9.90
2023-02-13T08:58:13.833Z,10.00
2023-02-13T08:59:12.971Z,9.80
2023-02-13T09:00:13.101Z,9.70
2023-02-13T09:01:13.071Z,9.80
2023-02-13T09:02:13.398Z,9.90
2023-02-13T09:03:13.380Z,9.60
2023-02-13T09:04:13.549Z,9.80
2023-02-13T09:05:13.561Z,9.90
2023-02-13T09:06:14.293Z,10.10
2023-02-13T09:07:13.390Z,9.90
2023-02-13T09:08:13.588Z,9.80
2023-02-13T09:09:13.939Z,10.00
2023-02-13T09:10:17.935Z,10.10
2023-02-13T09:11:12.931Z,10.20
2023-02-13T09:12:12.889Z,10.20
2023-02-13T09:13:12.836Z,10.40
2023-02-13T09:14:14.336Z,10.00
2023-02-13T09:15:18.808Z,10.10
2023-02-13T09:16:13.908Z,10.50
2023-02-13T09:17:12.801Z,10.70
2023-02-13T09:18:13.735Z,10.60
2023-02-13T09:19:13.679Z,10.50
2023-02-13T09:20:14.677Z,10.70
2023-02-13T09:21:13.765Z,10.70
2023-02-13T09:22:13.876Z,10.90
2023-02-13T09:23:13.268Z,11.00
2023-02-13T09:24:13.306Z,11.20
2023-02-13T09:25:13.544Z,11.20
2023-02-13T09:26:13.937Z,11.30
2023-02-13T09:27:13.291Z,11.00
2023-02-13T09:28:13.373Z,10.70
2023-02-13T09:29:13.410Z,10.40
2023-02-13T09:30:13.389Z,10.60
2023-02-13T09:31:13.469Z,10.50
2023-02-13T09:32:13.856Z,10.60
2023-02-13T09:33:13.089Z,10.80
2023-02-13T09:34:12.999Z,11.00
2023-02-13T09:35:13.045Z,11.10
2023-02-13T09:36:12.963Z,10.90
2023-02-13T09:37:12.886Z,11.30
2023-02-13T09:38:13.107Z,11.20
2023-02-13T09:39:13.421Z,10.70
2023-02-13T09:40:13.632Z,10.90
2023-02-13T09:41:14.297Z,10.80
2023-02-13T09:42:13.340Z,10.40
2023-02-13T09:43:13.814Z,10.70
2023-02-13T09:44:12.815Z,10.80
2023-02-13T09:45:13.892Z,10.70
2023-02-13T09:46:14.026Z,11.00
2023-02-13T09:47:13.029Z,10.70
2023-02-13T09:48:12.995Z,10.80
2023-02-13T09:49:13.102Z,10.80
2023-02-13T09:50:13.021Z,10.50
2023-02-13T09:51:12.887Z,10.90
2023-02-13T09:52:13.221Z,10.80
2023-02-13T09:53:18.611Z,10.80
2023-02-13T09:54:13.669Z,11.00
2023-02-13T09:55:13.756Z,11.30
2023-02-13T09:56:14.007Z,11.50
2023-02-13T09:57:13.042Z,11.20
2023-02-13T09:58:13.946Z,11.00
2023-02-13T09:59:12.802Z,11.40
2023-02-13T10:00:13.782Z,11.80
2023-02-13T10:01:13.776Z,12.00
2023-02-13T10:02:14.049Z,11.70
2023-02-13T10:03:13.082Z,11.40
2023-02-13T10:04:13.521Z,12.10
2023-02-13T10:05:13.739Z,12.60
2023-02-13T10:06:13.718Z,12.40
2023-02-13T10:07:13.673Z,13.50
2023-02-13T10:08:14.078Z,14.20
2023-02-13T10:09:12.993Z,14.00
2023-02-13T10:10:12.948Z,13.90
2023-02-13T10:11:13.395Z,14.20
2023-02-13T10:12:13.366Z,14.40
2023-02-13T10:13:13.538Z,14.40
2023-02-13T10:14:13.445Z,14.00
2023-02-13T10:15:13.574Z,14.10
2023-02-13T10:16:13.828Z,14.80
2023-02-13T10:17:13.975Z,15.70
2023-02-13T10:18:13.461Z,14.60
2023-02-13T10:19:13.564Z,14.60
2023-02-13T10:20:13.577Z,15.30
2023-02-13T10:21:13.514Z,15.90
2023-02-13T10:22:13.460Z,15.30
2023-02-13T10:23:13.426Z,14.80
2023-02-13T10:24:13.573Z,15.70
2023-02-13T10:25:13.650Z,16.30
2023-02-13T10:26:14.597Z,15.20
2023-02-13T10:27:13.992Z,13.90
2023-02-13T10:28:12.995Z,14.10
2023-02-13T10:29:13.191Z,13.90
2023-02-13T10:30:13.057Z,14.10
2023-02-13T10:31:12.990Z,15.10
2023-02-13T10:32:13.173Z,15.20
2023-02-13T10:33:13.259Z,15.80
2023-02-13T10:34:13.250Z,16.80
2023-02-13T10:35:13.570Z,17.80
2023-02-13T10:36:13.492Z,18.40
2023-02-13T10:37:13.488Z,19.10
2023-02-13T10:38:13.485Z,18.90
2023-02-13T10:39:13.436Z,17.60
2023-02-13T10:40:13.437Z,18.00
2023-02-13T10:41:13.640Z,18.30
2023-02-13T10:42:13.984Z,17.30
2023-02-13T10:43:13.077Z,16.70
2023-02-13T10:44:13.289Z,15.80
2023-02-13T10:45:13.487Z,16.10
2023-02-13T10:46:13.536Z,15.20
2023-02-13T10:47:13.714Z,15.60
2023-02-13T10:48:13.718Z,16.50
2023-02-13T10:49:14.040Z,17.40
2023-02-13T10:50:13.332Z,17.90
2023-02-13T10:51:13.707Z,16.20
2023-02-13T10:52:13.910Z,15.40
2023-02-13T10:53:13.200Z,15.40
2023-02-13T10:54:13.489Z,15.50
2023-02-13T10:55:13.525Z,15.70
2023-02-13T10:56:13.717Z,15.80
2023-02-13T10:57:13.731Z,16.40
2023-02-13T10:58:14.444Z,16.30
2023-02-13T10:59:13.580Z,16.50
2023-02-13T11:00:13.864Z,18.10
2023-02-13T11:01:13.834Z,19.00
2023-02-13T11:02:14.255Z,19.80
2023-02-13T11:03:13.616Z,19.10
2023-02-13T11:04:29.649Z,17.30
2023-02-13T11:05:28.857Z,15.90
2023-02-13T11:06:31.925Z,15.40
2023-02-13T11:07:19.011Z,15.00
2023-02-13T11:08:39.958Z,15.20
2023-02-13T11:09:14.376Z,15.00
2023-02-13T11:10:14.491Z,14.30
2023-02-13T11:11:13.774Z,14.60
2023-02-13T11:12:21.340Z,15.40
2023-02-13T11:13:13.708Z,15.80
2023-02-13T11:14:13.971Z,15.70
2023-02-13T11:15:13.110Z,15.90
2023-02-13T11:16:13.174Z,16.70
2023-02-13T11:17:13.477Z,16.70
2023-02-13T11:18:13.593Z,17.00
2023-02-13T11:19:13.565Z,18.40
2023-02-13T11:20:17.072Z,16.80
2023-02-13T11:21:13.373Z,16.20
2023-02-13T11:22:13.690Z,16.80
2023-02-13T11:23:13.982Z,15.50
2023-02-13T11:24:12.957Z,15.30
2023-02-13T11:25:13.264Z,15.80
2023-02-13T11:26:13.610Z,16.20
2023-02-13T11:27:13.664Z,16.30
2023-02-13T11:28:14.188Z,16.10
2023-02-13T11:29:13.251Z,15.50
2023-02-13T11:30:13.376Z,15.90
2023-02-13T11:31:13.312Z,16.30
2023-02-13T11:32:13.437Z,15.80
2023-02-13T11:33:13.771Z,17.40
2023-02-13T11:34:13.841Z,16.80
2023-02-13T11:35:14.619Z,16.10
2023-02-13T11:36:13.516Z,16.70
2023-02-13T11:37:13.569Z,17.40
2023-02-13T11:38:13.517Z,17.00
2023-02-13T11:39:13.536Z,17.50
2023-02-13T11:40:13.546Z,16.60
2023-02-13T11:41:13.454Z,17.00
2023-02-13T11:42:13.835Z,17.90
2023-02-13T11:43:13.898Z,18.80
2023-02-13T11:44:13.070Z,19.50
2023-02-13T11:45:13.578Z,19.30
2023-02-13T11:46:14.664Z,19.20
2023-02-13T11:47:12.841Z,18.70
2023-02-13T11:48:12.874Z,17.30
2023-02-13T11:49:12.898Z,16.70
2023-02-13T11:50:14.580Z,17.30
2023-02-13T11:51:13.734Z,16.20
2023-02-13T11:52:15.339Z,16.10
2023-02-13T11:53:13.654Z,16.20
2023-02-13T11:54:15.753Z,16.10
2023-02-13T11:55:14.080Z,16.60
2023-02-13T11:56:13.432Z,16.90
2023-02-13T11:57:13.710Z,17.10
2023-02-13T11:58:13.738Z,17.40
2023-02-13T11:59:14.097Z,17.70
2023-02-13T12:00:13.261Z,18.70
2023-02-13T12:01:13.432Z,18.20
2023-02-13T12:02:13.596Z,17.20
2023-02-13T12:03:14.008Z,15.80
2023-02-13T12:04:13.386Z,16.10
2023-02-13T12:05:13.588Z,16.10
2023-02-13T12:06:13.603Z,16.30
2023-02-13T12:07:15.194Z,16.70
2023-02-13T12:08:13.444Z,17.90
2023-02-13T12:09:13.728Z,17.20
2023-02-13T12:10:13.936Z,17.10
2023-02-13T12:11:13.260Z,17.60
2023-02-13T12:12:13.749Z,17.80
2023-02-13T12:13:13.890Z,19.30
2023-02-13T12:14:12.941Z,18.60
2023-02-13T12:15:14.199Z,18.60
2023-02-13T12:16:23.673Z,19.40
2023-02-13T12:17:25.525Z,18.90
2023-02-13T12:18:19.218Z,18.50
2023-02-13T12:19:14.195Z,18.00
2023-02-13T12:20:13.603Z,17.00
2023-02-13T12:21:13.611Z,16.80
2023-02-13T12:22:13.582Z,16.40
2023-02-13T12:23:13.569Z,16.30
2023-02-13T12:24:14.059Z,17.80
2023-02-13T12:25:13.361Z,18.60
2023-02-13T12:26:13.306Z,17.50
2023-02-13T12:27:13.297Z,16.80
2023-02-13T12:28:13.278Z,17.30
2023-02-13T12:29:13.457Z,18.30
2023-02-13T12:30:13.846Z,17.60
2023-02-13T12:31:13.026Z,17.10
2023-02-13T12:32:12.982Z,18.30
2023-02-13T12:33:13.315Z,18.70
2023-02-13T12:34:13.603Z,17.90
2023-02-13T12:35:13.640Z,17.40
2023-02-13T12:36:13.543Z,17.60
2023-02-13T12:37:13.650Z,18.30
2023-02-13T12:38:13.921Z,20.00
2023-02-13T12:39:13.038Z,19.80
2023-02-13T12:40:13.112Z,20.00
2023-02-13T12:41:13.197Z,19.10
2023-02-13T12:42:13.471Z,18.80
2023-02-13T12:43:13.318Z,17.40
2023-02-13T12:44:13.311Z,16.70
2023-02-13T12:45:18.325Z,18.40
2023-02-13T12:46:13.276Z,19.20
2023-02-13T12:47:13.188Z,19.40
2023-02-13T12:48:13.540Z,19.60
2023-02-13T12:49:13.398Z,18.70
2023-02-13T12:50:13.818Z,18.60
2023-02-13T12:51:13.865Z,18.80
2023-02-13T12:52:14.595Z,18.00
2023-02-13T12:53:41.557Z,18.00
2023-02-13T12:54:13.334Z,18.20
2023-02-13T12:55:13.558Z,18.70
2023-02-13T12:56:13.607Z,18.70
2023-02-13T12:57:13.765Z,19.60
2023-02-13T12:58:13.948Z,19.20
2023-02-13T12:59:12.987Z,19.80
2023-02-13T13:00:13.060Z,18.80
2023-02-13T13:01:13.164Z,20.00
2023-02-13T13:02:13.624Z,19.90
2023-02-13T13:03:14.101Z,20.50
2023-02-13T13:04:13.185Z,21.50